sensor_id;sensor_type;location;lat;lon;timestamp;pressure;altitude;pressure_sealevel;temperature;humidity
35519;BME280;21627;48.216;16.482;2024-03-07T00:00:27;100091.84;;;6.25;100.00
35519;BME280;21627;48.216;16.482;2024-03-07T00:02:54;100098.69;;;6.26;100.00
35519;BME280;21627;48.216;16.482;2024-03-07T00:05:22;100097.78;;;6.24;100.00
35519;BME280;21627;48.216;16.482;2024-03-07T00:07:53;100098.59;;;6.22;100.00
35519;BME280;21627;48.216;16.482;2024-03-07T00:10:21;100096.69;;;6.15;100.00
35519;BME280;21627;48.216;16.482;2024-03-07T00:12:48;100085.41;;;6.06;100.00
35519;BME280;21627;48.216;16.482;2024-03-07T00:15:16;100084.47;;;6.03;100.00
35519;BME280;21627;48.216;16.482;2024-03-07T00:17:45;100093.09;;;6.05;100.00
35519;BME280;21627;48.216;16.482;2024-03-07T00:20:12;100093.78;;;5.99;100.00
35519;BME280;21627;48.216;16.482;2024-03-07T00:22:46;100088.41;;;5.90;100.00
35519;BME280;21627;48.216;16.482;2024-03-07T00:25:14;100099.34;;;5.83;100.00
35519;BME280;21627;48.216;16.482;2024-03-07T00:27:46;100090.63;;;5.76;100.00
35519;BME280;21627;48.216;16.482;2024-03-07T00:30:13;100086.34;;;5.77;100.00
35519;BME280;21627;48.216;16.482;2024-03-07T00:32:41;100081.81;;;5.67;100.00
35519;BME280;21627;48.216;16.482;2024-03-07T00:35:08;100091.34;;;5.71;100.00
35519;BME280;21627;48.216;16.482;2024-03-07T00:37:36;100084.44;;;5.68;100.00
35519;BME280;21627;48.216;16.482;2024-03-07T00:40:04;100081.22;;;5.77;100.00
35519;BME280;21627;48.216;16.482;2024-03-07T00:42:33;100070.81;;;5.71;100.00
35519;BME280;21627;48.216;16.482;2024-03-07T00:45:01;100080.34;;;5.75;100.00
35519;BME280;21627;48.216;16.482;2024-03-07T00:47:28;100075.13;;;5.72;100.00
35519;BME280;21627;48.216;16.482;2024-03-07T00:49:55;100071.91;;;5.80;100.00
35519;BME280;21627;48.216;16.482;2024-03-07T00:52:22;100076.94;;;5.76;100.00
35519;BME280;21627;48.216;16.482;2024-03-07T00:54:49;100069.31;;;5.79;100.00
35519;BME280;21627;48.216;16.482;2024-03-07T00:57:17;100070.34;;;5.85;100.00
35519;BME280;21627;48.216;16.482;2024-03-07T00:59:44;100076.22;;;5.81;100.00
35519;BME280;21627;48.216;16.482;2024-03-07T01:02:12;100068.69;;;5.88;100.00
35519;BME280;21627;48.216;16.482;2024-03-07T01:04:39;100065.28;;;5.89;100.00
35519;BME280;21627;48.216;16.482;2024-03-07T01:07:06;100074.94;;;5.97;100.00
35519;BME280;21627;48.216;16.482;2024-03-07T01:09:33;100073.09;;;5.93;100.00
35519;BME280;21627;48.216;16.482;2024-03-07T01:12:02;100067.91;;;5.92;100.00
35519;BME280;21627;48.216;16.482;2024-03-07T01:14:33;100062.75;;;5.90;100.00
35519;BME280;21627;48.216;16.482;2024-03-07T01:17:00;100052.25;;;5.81;100.00
35519;BME280;21627;48.216;16.482;2024-03-07T01:19:27;100060.06;;;5.85;100.00
35519;BME280;21627;48.216;16.482;2024-03-07T01:21:54;100063.56;;;5.89;100.00
35519;BME280;21627;48.216;16.482;2024-03-07T01:24:21;100064.56;;;5.94;100.00
35519;BME280;21627;48.216;16.482;2024-03-07T01:26:49;100059.50;;;5.96;100.00
35519;BME280;21627;48.216;16.482;2024-03-07T01:29:17;100060.41;;;5.99;100.00
35519;BME280;21627;48.216;16.482;2024-03-07T01:31:44;100063.06;;;6.02;100.00
35519;BME280;21627;48.216;16.482;2024-03-07T01:34:11;100056.78;;;5.91;100.00
35519;BME280;21627;48.216;16.482;2024-03-07T01:36:39;100062.81;;;5.93;100.00
35519;BME280;21627;48.216;16.482;2024-03-07T01:39:06;100060.41;;;5.98;100.00
35519;BME280;21627;48.216;16.482;2024-03-07T01:41:33;100052.72;;;5.99;100.00
35519;BME280;21627;48.216;16.482;2024-03-07T01:44:01;100063.09;;;6.04;100.00
35519;BME280;21627;48.216;16.482;2024-03-07T01:46:29;100061.38;;;6.03;100.00
35519;BME280;21627;48.216;16.482;2024-03-07T01:48:57;100061.31;;;6.01;100.00
35519;BME280;21627;48.216;16.482;2024-03-07T01:51:25;100052.03;;;6.06;100.00
35519;BME280;21627;48.216;16.482;2024-03-07T01:53:54;100063.88;;;6.01;100.00
35519;BME280;21627;48.216;16.482;2024-03-07T01:56:21;100055.28;;;5.99;100.00
35519;BME280;21627;48.216;16.482;2024-03-07T01:58:49;100057.09;;;6.03;100.00
35519;BME280;21627;48.216;16.482;2024-03-07T02:01:18;100057.78;;;5.95;100.00
35519;BME280;21627;48.216;16.482;2024-03-07T02:03:46;100056.88;;;5.94;100.00
35519;BME280;21627;48.216;16.482;2024-03-07T02:06:13;100058.69;;;5.98;100.00
35519;BME280;21627;48.216;16.482;2024-03-07T02:08:41;100053.63;;;6.01;100.00
35519;BME280;21627;48.216;16.482;2024-03-07T02:11:08;100055.44;;;6.05;100.00
35519;BME280;21627;48.216;16.482;2024-03-07T02:13:37;100053.63;;;6.01;100.00
35519;BME280;21627;48.216;16.482;2024-03-07T02:16:04;100055.28;;;5.99;100.00
35519;BME280;21627;48.216;16.482;2024-03-07T02:18:32;100046.25;;;6.15;100.00
35519;BME280;21627;48.216;16.482;2024-03-07T02:21:00;100049.44;;;6.05;100.00
35519;BME280;21627;48.216;16.482;2024-03-07T02:23:27;100049.41;;;6.03;100.00
35519;BME280;21627;48.216;16.482;2024-03-07T02:25:54;100044.25;;;6.03;100.00
35519;BME280;21627;48.216;16.482;2024-03-07T02:28:22;100049.56;;;6.11;100.00
35519;BME280;21627;48.216;16.482;2024-03-07T02:30:49;100043.47;;;6.06;100.00
35519;BME280;21627;48.216;16.482;2024-03-07T02:33:16;100048.50;;;6.01;100.00
35519;BME280;21627;48.216;16.482;2024-03-07T02:35:43;100044.19;;;6.00;100.00
35519;BME280;21627;48.216;16.482;2024-03-07T02:38:10;100042.44;;;5.99;100.00
35519;BME280;21627;48.216;16.482;2024-03-07T02:40:38;100048.66;;;6.09;100.00
35519;BME280;21627;48.216;16.482;2024-03-07T02:43:05;100033.94;;;6.00;100.00
35519;BME280;21627;48.216;16.482;2024-03-07T02:45:32;100039.81;;;5.95;100.00
35519;BME280;21627;48.216;16.482;2024-03-07T02:47:59;100029.59;;;5.98;100.00
35519;BME280;21627;48.216;16.482;2024-03-07T02:50:27;100036.56;;;6.03;100.00
35519;BME280;21627;48.216;16.482;2024-03-07T02:52:54;100035.72;;;6.04;100.00
35519;BME280;21627;48.216;16.482;2024-03-07T02:55:21;100039.88;;;5.98;100.00
35519;BME280;21627;48.216;16.482;2024-03-07T02:57:48;100034.53;;;5.92;100.00
35519;BME280;21627;48.216;16.482;2024-03-07T03:00:15;100035.34;;;5.89;100.00
35519;BME280;21627;48.216;16.482;2024-03-07T03:02:54;100044.03;;;5.94;100.00
35519;BME280;21627;48.216;16.482;2024-03-07T03:05:22;100037.84;;;5.86;100.00
35519;BME280;21627;48.216;16.482;2024-03-07T03:07:49;100050.88;;;5.94;100.00
35519;BME280;21627;48.216;16.482;2024-03-07T03:10:24;100035.16;;;5.81;100.00
35519;BME280;21627;48.216;16.482;2024-03-07T03:12:58;100035.88;;;5.76;100.00
35519;BME280;21627;48.216;16.482;2024-03-07T03:15:27;100042.78;;;5.78;100.00
35519;BME280;21627;48.216;16.482;2024-03-07T03:17:54;100044.50;;;5.78;100.00
35519;BME280;21627;48.216;16.482;2024-03-07T03:20:24;100037.72;;;5.81;100.00
35519;BME280;21627;48.216;16.482;2024-03-07T03:22:55;100044.44;;;5.75;100.00
35519;BME280;21627;48.216;16.482;2024-03-07T03:25:25;100044.44;;;5.76;100.00
35519;BME280;21627;48.216;16.482;2024-03-07T03:27:52;100047.97;;;5.80;100.00
35519;BME280;21627;48.216;16.482;2024-03-07T03:30:20;100038.50;;;5.79;100.00
35519;BME280;21627;48.216;16.482;2024-03-07T03:32:48;100044.50;;;5.78;100.00
35519;BME280;21627;48.216;16.482;2024-03-07T03:35:16;100046.38;;;5.85;100.00
35519;BME280;21627;48.216;16.482;2024-03-07T03:37:43;100048.75;;;5.77;100.00
35519;BME280;21627;48.216;16.482;2024-03-07T03:40:11;100053.16;;;5.83;100.00
35519;BME280;21627;48.216;16.482;2024-03-07T03:42:43;100050.56;;;5.81;100.00
35519;BME280;21627;48.216;16.482;2024-03-07T03:45:10;100046.16;;;5.76;100.00
35519;BME280;21627;48.216;16.482;2024-03-07T03:47:42;100041.06;;;5.77;100.00
35519;BME280;21627;48.216;16.482;2024-03-07T03:50:14;100050.56;;;5.81;100.00
35519;BME280;21627;48.216;16.482;2024-03-07T03:52:41;100048.81;;;5.80;100.00
35519;BME280;21627;48.216;16.482;2024-03-07T03:55:09;100054.81;;;5.81;100.00
35519;BME280;21627;48.216;16.482;2024-03-07T03:57:41;100051.41;;;5.80;100.00
35519;BME280;21627;48.216;16.482;2024-03-07T04:00:10;100045.59;;;5.89;100.00
35519;BME280;21627;48.216;16.482;2024-03-07T04:02:43;100044.94;;;5.96;100.00
35519;BME280;21627;48.216;16.482;2024-03-07T04:05:11;100044.81;;;5.92;100.00
35519;BME280;21627;48.216;16.482;2024-03-07T04:07:41;100044.78;;;5.90;100.00
35519;BME280;21627;48.216;16.482;2024-03-07T04:10:12;100036.94;;;5.84;100.00
35519;BME280;21627;48.216;16.482;2024-03-07T04:12:40;100050.81;;;5.92;100.00
35519;BME280;21627;48.216;16.482;2024-03-07T04:15:10;100051.06;;;6.01;100.00
35519;BME280;21627;48.216;16.482;2024-03-07T04:17:38;100052.44;;;5.89;100.00
35519;BME280;21627;48.216;16.482;2024-03-07T04:20:06;100042.91;;;5.83;100.00
35519;BME280;21627;48.216;16.482;2024-03-07T04:22:34;100050.56;;;5.81;100.00
35519;BME280;21627;48.216;16.482;2024-03-07T04:25:02;100049.47;;;5.72;100.00
35519;BME280;21627;48.216;16.482;2024-03-07T04:27:30;100029.34;;;5.54;100.00
35519;BME280;21627;48.216;16.482;2024-03-07T04:29:58;100050.97;;;5.63;100.00
35519;BME280;21627;48.216;16.482;2024-03-07T04:32:25;100039.91;;;5.64;100.00
35519;BME280;21627;48.216;16.482;2024-03-07T04:34:52;100048.34;;;5.60;100.00
35519;BME280;21627;48.216;16.482;2024-03-07T04:37:19;100044.88;;;5.58;100.00
35519;BME280;21627;48.216;16.482;2024-03-07T04:39:46;100049.75;;;5.48;100.00
35519;BME280;21627;48.216;16.482;2024-03-07T04:42:13;100049.00;;;5.53;100.00
35519;BME280;21627;48.216;16.482;2024-03-07T04:44:40;100058.28;;;5.48;100.00
35519;BME280;21627;48.216;16.482;2024-03-07T04:47:07;100051.16;;;5.36;100.00
35519;BME280;21627;48.216;16.482;2024-03-07T04:49:35;100047.13;;;5.46;100.00
35519;BME280;21627;48.216;16.482;2024-03-07T04:52:03;100048.75;;;5.42;100.00
35519;BME280;21627;48.216;16.482;2024-03-07T04:54:32;100053.94;;;5.46;100.00
35519;BME280;21627;48.216;16.482;2024-03-07T04:56:59;100051.88;;;5.31;100.00
35519;BME280;21627;48.216;16.482;2024-03-07T04:59:26;100058.75;;;5.32;100.00
35519;BME280;21627;48.216;16.482;2024-03-07T05:01:53;100052.00;;;5.35;100.00
35519;BME280;21627;48.216;16.482;2024-03-07T05:04:20;100057.97;;;5.36;100.00
35519;BME280;21627;48.216;16.482;2024-03-07T05:06:50;100059.31;;;5.21;100.00
35519;BME280;21627;48.216;16.482;2024-03-07T05:09:17;100063.69;;;5.26;100.00
35519;BME280;21627;48.216;16.482;2024-03-07T05:11:52;100060.41;;;5.30;100.00
35519;BME280;21627;48.216;16.482;2024-03-07T05:14:20;100058.56;;;5.26;100.00
35519;BME280;21627;48.216;16.482;2024-03-07T05:16:49;100067.16;;;5.28;100.00
35519;BME280;21627;48.216;16.482;2024-03-07T05:19:32;100060.19;;;5.22;100.00
35519;BME280;21627;48.216;16.482;2024-03-07T05:22:01;100063.63;;;5.23;100.00
35519;BME280;21627;48.216;16.482;2024-03-07T05:24:29;100056.84;;;5.25;100.00
35519;BME280;21627;48.216;16.482;2024-03-07T05:26:56;100051.66;;;5.23;100.00
35519;BME280;21627;48.216;16.482;2024-03-07T05:29:24;100070.41;;;5.20;100.00
35519;BME280;21627;48.216;16.482;2024-03-07T05:31:52;100068.75;;;5.23;100.00
35519;BME280;21627;48.216;16.482;2024-03-07T05:34:19;100067.09;;;5.25;100.00
35519;BME280;21627;48.216;16.482;2024-03-07T05:36:47;100073.75;;;5.18;100.00
35519;BME280;21627;48.216;16.482;2024-03-07T05:39:16;100078.09;;;5.20;100.00
35519;BME280;21627;48.216;16.482;2024-03-07T05:41:45;100078.13;;;5.22;100.00
35519;BME280;21627;48.216;16.482;2024-03-07T05:44:13;100086.56;;;5.18;100.00
35519;BME280;21627;48.216;16.482;2024-03-07T05:46:43;100086.44;;;5.13;100.00
35519;BME280;21627;48.216;16.482;2024-03-07T05:49:14;100078.16;;;5.24;100.00
35519;BME280;21627;48.216;16.482;2024-03-07T05:51:41;100086.69;;;5.23;100.00
35519;BME280;21627;48.216;16.482;2024-03-07T05:54:12;100082.44;;;5.23;100.00
35519;BME280;21627;48.216;16.482;2024-03-07T05:56:41;100084.19;;;5.24;100.00
35519;BME280;21627;48.216;16.482;2024-03-07T05:59:09;100092.06;;;5.32;100.00
35519;BME280;21627;48.216;16.482;2024-03-07T06:01:39;100083.16;;;5.19;100.00
35519;BME280;21627;48.216;16.482;2024-03-07T06:04:07;100094.31;;;5.21;100.00
35519;BME280;21627;48.216;16.482;2024-03-07T06:06:37;100104.44;;;5.16;100.00
35519;BME280;21627;48.216;16.482;2024-03-07T06:09:08;100106.06;;;5.13;100.00
35519;BME280;21627;48.216;16.482;2024-03-07T06:11:36;100105.38;;;5.18;100.00
35519;BME280;21627;48.216;16.482;2024-03-07T06:14:05;100102.78;;;5.17;100.00
35519;BME280;21627;48.216;16.482;2024-03-07T06:16:35;100108.78;;;5.19;100.00
35519;BME280;21627;48.216;16.482;2024-03-07T06:19:04;100105.38;;;5.18;100.00
35519;BME280;21627;48.216;16.482;2024-03-07T06:21:38;100092.03;;;5.63;100.00
35519;BME280;21627;48.216;16.482;2024-03-07T06:24:09;100098.59;;;5.54;100.00
35519;BME280;21627;48.216;16.482;2024-03-07T06:26:39;100104.50;;;5.50;100.00
35519;BME280;21627;48.216;16.482;2024-03-07T06:29:26;100108.97;;;5.57;100.00
35519;BME280;21627;48.216;16.482;2024-03-07T06:31:55;100107.94;;;5.50;100.00
35519;BME280;21627;48.216;16.482;2024-03-07T06:34:22;100108.66;;;5.45;100.00
35519;BME280;21627;48.216;16.482;2024-03-07T06:36:49;100118.84;;;5.43;100.00
35519;BME280;21627;48.216;16.482;2024-03-07T06:39:16;100115.50;;;5.46;100.00
35519;BME280;21627;48.216;16.482;2024-03-07T06:41:43;100117.13;;;5.42;100.00
35519;BME280;21627;48.216;16.482;2024-03-07T06:44:12;100115.66;;;5.52;100.00
35519;BME280;21627;48.216;16.482;2024-03-07T06:46:39;100119.78;;;5.45;100.00
35519;BME280;21627;48.216;16.482;2024-03-07T06:49:06;100117.28;;;5.48;100.00
35519;BME280;21627;48.216;16.482;2024-03-07T06:51:37;100120.94;;;5.58;100.00
35519;BME280;21627;48.216;16.482;2024-03-07T06:54:06;100127.59;;;5.50;100.00
35519;BME280;21627;48.216;16.482;2024-03-07T06:56:33;100117.13;;;5.42;100.00
35519;BME280;21627;48.216;16.482;2024-03-07T06:59:01;100124.97;;;5.48;100.00
35519;BME280;21627;48.216;16.482;2024-03-07T07:01:31;100118.91;;;5.45;100.00
35519;BME280;21627;48.216;16.482;2024-03-07T07:04:00;100126.69;;;5.49;100.00
35519;BME280;21627;48.216;16.482;2024-03-07T07:06:30;100124.56;;;5.64;100.00
35519;BME280;21627;48.216;16.482;2024-03-07T07:08:58;100126.16;;;5.61;100.00
35519;BME280;21627;48.216;16.482;2024-03-07T07:11:26;100128.00;;;5.67;100.00
35519;BME280;21627;48.216;16.482;2024-03-07T07:13:59;100129.19;;;5.79;100.00
35519;BME280;21627;48.216;16.482;2024-03-07T07:16:26;100135.75;;;5.68;100.00
35519;BME280;21627;48.216;16.482;2024-03-07T07:18:54;100123.84;;;5.70;100.00
35519;BME280;21627;48.216;16.482;2024-03-07T07:21:22;100124.91;;;5.78;100.00
35519;BME280;21627;48.216;16.482;2024-03-07T07:23:49;100122.28;;;5.77;100.00
35519;BME280;21627;48.216;16.482;2024-03-07T07:26:16;100126.34;;;5.69;100.00
35519;BME280;21627;48.216;16.482;2024-03-07T07:28:43;100127.38;;;5.75;100.00
35519;BME280;21627;48.216;16.482;2024-03-07T07:31:10;100126.59;;;5.78;100.00
35519;BME280;21627;48.216;16.482;2024-03-07T07:33:37;100123.97;;;5.75;100.00
35519;BME280;21627;48.216;16.482;2024-03-07T07:36:05;100120.50;;;5.74;100.00
35519;BME280;21627;48.216;16.482;2024-03-07T07:38:32;100124.78;;;5.74;100.00
35519;BME280;21627;48.216;16.482;2024-03-07T07:41:00;100133.53;;;5.82;100.00
35519;BME280;21627;48.216;16.482;2024-03-07T07:43:27;100124.94;;;5.80;100.00
35519;BME280;21627;48.216;16.482;2024-03-07T07:46:08;100126.84;;;5.89;100.00
35519;BME280;21627;48.216;16.482;2024-03-07T07:48:35;100120.00;;;5.88;100.00
35519;BME280;21627;48.216;16.482;2024-03-07T07:51:03;100123.72;;;5.99;100.00
35519;BME280;21627;48.216;16.482;2024-03-07T07:53:32;100130.78;;;6.07;100.00
35519;BME280;21627;48.216;16.482;2024-03-07T07:55:59;100131.59;;;6.06;100.00
35519;BME280;21627;48.216;16.482;2024-03-07T07:58:27;100129.38;;;6.20;100.00
35519;BME280;21627;48.216;16.482;2024-03-07T08:00:55;100127.78;;;6.25;100.00
35519;BME280;21627;48.216;16.482;2024-03-07T08:03:22;100131.16;;;6.24;100.00
35519;BME280;21627;48.216;16.482;2024-03-07T08:05:50;100132.16;;;6.29;100.00
35519;BME280;21627;48.216;16.482;2024-03-07T08:08:17;100132.13;;;6.28;99.82
35519;BME280;21627;48.216;16.482;2024-03-07T08:10:46;100142.69;;;6.42;100.00
35519;BME280;21627;48.216;16.482;2024-03-07T08:13:15;100140.19;;;6.43;99.10
35519;BME280;21627;48.216;16.482;2024-03-07T08:15:42;100133.97;;;6.34;96.12
35519;BME280;21627;48.216;16.482;2024-03-07T08:18:09;100128.13;;;6.41;95.49
35519;BME280;21627;48.216;16.482;2024-03-07T08:20:39;100137.00;;;6.54;97.02
35519;BME280;21627;48.216;16.482;2024-03-07T08:23:08;100132.88;;;6.60;94.75
35519;BME280;21627;48.216;16.482;2024-03-07T08:25:36;100138.72;;;6.55;94.05
35519;BME280;21627;48.216;16.482;2024-03-07T08:28:06;100131.91;;;6.55;94.42
35519;BME280;21627;48.216;16.482;2024-03-07T08:30:34;100139.94;;;6.70;94.58
35519;BME280;21627;48.216;16.482;2024-03-07T08:33:02;100137.28;;;6.67;92.06
35519;BME280;21627;48.216;16.482;2024-03-07T08:35:32;100142.50;;;6.70;92.41
35519;BME280;21627;48.216;16.482;2024-03-07T08:38:00;100133.09;;;6.72;94.04
35519;BME280;21627;48.216;16.482;2024-03-07T08:40:29;100138.44;;;6.82;93.23
35519;BME280;21627;48.216;16.482;2024-03-07T08:43:01;100135.22;;;6.90;93.19
35519;BME280;21627;48.216;16.482;2024-03-07T08:45:29;100139.63;;;6.96;93.79
35519;BME280;21627;48.216;16.482;2024-03-07T08:48:01;100143.09;;;6.98;92.61
35519;BME280;21627;48.216;16.482;2024-03-07T08:50:31;100141.44;;;7.02;95.10
35519;BME280;21627;48.216;16.482;2024-03-07T08:53:01;100144.13;;;7.08;91.84
35519;BME280;21627;48.216;16.482;2024-03-07T08:55:28;100139.84;;;7.07;93.26
35519;BME280;21627;48.216;16.482;2024-03-07T08:57:56;100145.88;;;7.09;92.66
35519;BME280;21627;48.216;16.482;2024-03-07T09:00:23;100140.91;;;7.18;93.01
35519;BME280;21627;48.216;16.482;2024-03-07T09:02:57;100143.47;;;7.17;92.64
35519;BME280;21627;48.216;16.482;2024-03-07T09:05:28;100135.84;;;7.23;92.99
35519;BME280;21627;48.216;16.482;2024-03-07T09:07:56;100140.44;;;7.37;90.41
35519;BME280;21627;48.216;16.482;2024-03-07T09:10:24;100130.69;;;7.67;89.91
35519;BME280;21627;48.216;16.482;2024-03-07T09:12:53;100133.63;;;7.88;88.92
35519;BME280;21627;48.216;16.482;2024-03-07T09:15:22;100140.72;;;8.03;85.69
35519;BME280;21627;48.216;16.482;2024-03-07T09:17:51;100127.94;;;8.08;83.84
35519;BME280;21627;48.216;16.482;2024-03-07T09:20:20;100123.41;;;7.91;83.04
35519;BME280;21627;48.216;16.482;2024-03-07T09:22:48;100122.28;;;7.77;83.94
35519;BME280;21627;48.216;16.482;2024-03-07T09:25:17;100127.03;;;7.55;84.11
35519;BME280;21627;48.216;16.482;2024-03-07T09:27:47;100134.03;;;7.63;84.37
35519;BME280;21627;48.216;16.482;2024-03-07T09:30:14;100134.84;;;7.58;83.87
35519;BME280;21627;48.216;16.482;2024-03-07T09:32:46;100137.28;;;7.52;85.48
35519;BME280;21627;48.216;16.482;2024-03-07T09:35:13;100138.13;;;7.53;86.21
35519;BME280;21627;48.216;16.482;2024-03-07T09:37:42;100140.81;;;7.57;85.80
35519;BME280;21627;48.216;16.482;2024-03-07T09:40:11;100138.88;;;7.46;86.20
35519;BME280;21627;48.216;16.482;2024-03-07T09:42:44;100144.75;;;7.39;88.12
35519;BME280;21627;48.216;16.482;2024-03-07T09:45:18;100135.38;;;7.42;86.54
35519;BME280;21627;48.216;16.482;2024-03-07T09:47:49;100141.50;;;7.49;85.72
35519;BME280;21627;48.216;16.482;2024-03-07T09:50:21;100134.38;;;7.35;87.17
35519;BME280;21627;48.216;16.482;2024-03-07T09:52:53;100138.75;;;7.40;89.08
35519;BME280;21627;48.216;16.482;2024-03-07T09:55:22;100146.75;;;7.55;89.33
35519;BME280;21627;48.216;16.482;2024-03-07T09:57:54;100146.09;;;7.64;88.48
35519;BME280;21627;48.216;16.482;2024-03-07T10:00:25;100142.22;;;7.89;88.50
35519;BME280;21627;48.216;16.482;2024-03-07T10:03:07;100146.50;;;7.88;88.59
35519;BME280;21627;48.216;16.482;2024-03-07T10:05:35;100144.00;;;7.93;87.63
35519;BME280;21627;48.216;16.482;2024-03-07T10:08:05;100140.72;;;8.01;84.35
35519;BME280;21627;48.216;16.482;2024-03-07T10:10:34;100141.53;;;7.99;84.01
35519;BME280;21627;48.216;16.482;2024-03-07T10:13:01;100134.00;;;8.11;85.32
35519;BME280;21627;48.216;16.482;2024-03-07T10:15:31;100131.63;;;8.23;82.01
35519;BME280;21627;48.216;16.482;2024-03-07T10:17:59;100131.69;;;8.28;82.49
35519;BME280;21627;48.216;16.482;2024-03-07T10:20:28;100128.38;;;8.35;83.59
35519;BME280;21627;48.216;16.482;2024-03-07T10:22:56;100133.00;;;8.56;83.44
35519;BME280;21627;48.216;16.482;2024-03-07T10:25:24;100129.94;;;8.83;82.98
35519;BME280;21627;48.216;16.482;2024-03-07T10:27:54;100136.44;;;9.24;81.16
35519;BME280;21627;48.216;16.482;2024-03-07T10:30:21;100120.84;;;9.15;80.80
35519;BME280;21627;48.216;16.482;2024-03-07T10:32:58;100138.38;;;9.43;79.35
35519;BME280;21627;48.216;16.482;2024-03-07T10:35:28;100132.63;;;9.69;77.94
35519;BME280;21627;48.216;16.482;2024-03-07T10:37:57;100137.69;;;9.58;76.56
35519;BME280;21627;48.216;16.482;2024-03-07T10:40:33;100130.81;;;9.62;77.23
35519;BME280;21627;48.216;16.482;2024-03-07T10:43:10;100141.25;;;9.71;79.16
35519;BME280;21627;48.216;16.482;2024-03-07T10:45:44;100136.97;;;9.73;74.79
35519;BME280;21627;48.216;16.482;2024-03-07T10:48:20;100136.09;;;9.74;76.39
35519;BME280;21627;48.216;16.482;2024-03-07T10:51:09;100129.22;;;9.73;76.57
35519;BME280;21627;48.216;16.482;2024-03-07T10:53:51;100139.75;;;9.96;76.71
35519;BME280;21627;48.216;16.482;2024-03-07T10:57:02;100142.00;;;9.62;74.25
35519;BME280;21627;48.216;16.482;2024-03-07T10:59:39;100138.88;;;9.12;78.01
35519;BME280;21627;48.216;16.482;2024-03-07T11:02:20;100136.97;;;8.95;78.03
35519;BME280;21627;48.216;16.482;2024-03-07T11:04:57;100139.38;;;8.83;79.46
35519;BME280;21627;48.216;16.482;2024-03-07T11:07:26;100134.88;;;8.68;81.72
35519;BME280;21627;48.216;16.482;2024-03-07T11:09:55;100145.94;;;8.59;81.93
35519;BME280;21627;48.216;16.482;2024-03-07T11:12:23;100141.38;;;8.41;83.40
35519;BME280;21627;48.216;16.482;2024-03-07T11:14:52;100140.13;;;8.18;85.07
35519;BME280;21627;48.216;16.482;2024-03-07T11:17:21;100141.72;;;8.11;86.69
35519;BME280;21627;48.216;16.482;2024-03-07T11:19:49;100153.78;;;8.12;85.96
35519;BME280;21627;48.216;16.482;2024-03-07T11:22:32;100146.75;;;8.03;85.38
35519;BME280;21627;48.216;16.482;2024-03-07T11:25:05;100143.22;;;7.97;86.29
35519;BME280;21627;48.216;16.482;2024-03-07T11:27:38;100149.78;;;7.81;87.84
35519;BME280;21627;48.216;16.482;2024-03-07T11:30:07;100149.78;;;7.81;89.23
35519;BME280;21627;48.216;16.482;2024-03-07T11:32:38;100144.69;;;7.83;88.92
35519;BME280;21627;48.216;16.482;2024-03-07T11:35:12;100149.34;;;7.55;90.07
35519;BME280;21627;48.216;16.482;2024-03-07T11:37:43;100153.00;;;7.66;90.88
35519;BME280;21627;48.216;16.482;2024-03-07T11:42:53;100130.78;;;7.71;90.20
35519;BME280;21627;48.216;16.482;2024-03-07T11:45:21;100135.28;;;7.85;90.45
35519;BME280;21627;48.216;16.482;2024-03-07T11:47:57;100134.38;;;7.83;90.62
35519;BME280;21627;48.216;16.482;2024-03-07T11:50:28;100137.13;;;7.92;90.21
35519;BME280;21627;48.216;16.482;2024-03-07T11:52:56;100137.34;;;8.04;88.33
35519;BME280;21627;48.216;16.482;2024-03-07T11:55:23;100110.06;;;8.17;90.90
35519;BME280;21627;48.216;16.482;2024-03-07T11:57:51;100111.09;;;8.28;88.27
35519;BME280;21627;48.216;16.482;2024-03-07T12:00:19;100110.13;;;8.21;86.51
35519;BME280;21627;48.216;16.482;2024-03-07T12:02:48;100113.53;;;8.20;86.81
35519;BME280;21627;48.216;16.482;2024-03-07T12:05:16;100107.41;;;8.14;86.32
35519;BME280;21627;48.216;16.482;2024-03-07T12:07:44;100116.13;;;8.19;89.10
35519;BME280;21627;48.216;16.482;2024-03-07T12:10:11;100120.06;;;7.98;86.92
35519;BME280;21627;48.216;16.482;2024-03-07T12:12:38;100117.56;;;8.01;87.02
35519;BME280;21627;48.216;16.482;2024-03-07T12:15:08;100119.88;;;7.88;87.42
35519;BME280;21627;48.216;16.482;2024-03-07T12:17:47;100117.31;;;7.88;89.25
35519;BME280;21627;48.216;16.482;2024-03-07T12:20:17;100116.16;;;7.69;88.73
35519;BME280;21627;48.216;16.482;2024-03-07T12:23:02;100107.53;;;7.68;89.96
35519;BME280;21627;48.216;16.482;2024-03-07T12:25:31;100111.00;;;7.70;89.75
35519;BME280;21627;48.216;16.482;2024-03-07T12:28:11;100111.00;;;7.70;88.37
35519;BME280;21627;48.216;16.482;2024-03-07T12:30:50;100114.44;;;7.69;87.91
35519;BME280;21627;48.216;16.482;2024-03-07T12:33:19;100107.41;;;7.61;88.54
35519;BME280;21627;48.216;16.482;2024-03-07T12:35:47;100106.59;;;7.63;88.52
35519;BME280;21627;48.216;16.482;2024-03-07T12:38:17;100103.19;;;7.64;88.71
35519;BME280;21627;48.216;16.482;2024-03-07T12:40:45;100090.34;;;7.66;88.42
35519;BME280;21627;48.216;16.482;2024-03-07T12:43:18;100098.72;;;7.55;88.10
35519;BME280;21627;48.216;16.482;2024-03-07T12:45:51;100100.72;;;7.70;88.84
35519;BME280;21627;48.216;16.482;2024-03-07T12:48:19;100101.78;;;7.82;87.45
35519;BME280;21627;48.216;16.482;2024-03-07T12:50:49;100093.94;;;7.74;89.08
35519;BME280;21627;48.216;16.482;2024-03-07T12:53:21;100099.03;;;7.72;86.36
35519;BME280;21627;48.216;16.482;2024-03-07T12:55:49;100087.09;;;7.77;86.61